sensor_id;sensor_type;location;lat;lon;timestamp;P1;durP1;ratioP1;P2;durP2;ratioP2
15595;SDS011;7898;48.658;9.068;2023-04-20T00:01:07;5.10;;;4.30;;
15595;SDS011;7898;48.658;9.068;2023-04-20T00:03:36;7.17;;;5.03;;
15595;SDS011;7898;48.658;9.068;2023-04-20T00:06:03;4.70;;;3.97;;
15595;SDS011;7898;48.658;9.068;2023-04-20T00:08:30;5.80;;;4.13;;
15595;SDS011;7898;48.658;9.068;2023-04-20T00:10:56;7.60;;;4.90;;
15595;SDS011;7898;48.658;9.068;2023-04-20T00:13:24;6.37;;;4.40;;
15595;SDS011;7898;48.658;9.068;2023-04-20T00:15:51;4.70;;;3.60;;
15595;SDS011;7898;48.658;9.068;2023-04-20T00:18:18;6.80;;;4.10;;
15595;SDS011;7898;48.658;9.068;2023-04-20T00:20:46;9.73;;;4.57;;
15595;SDS011;7898;48.658;9.068;2023-04-20T00:23:13;5.63;;;4.30;;
15595;SDS011;7898;48.658;9.068;2023-04-20T00:25:40;9.47;;;4.80;;
15595;SDS011;7898;48.658;9.068;2023-04-20T00:28:07;9.67;;;4.37;;
15595;SDS011;7898;48.658;9.068;2023-04-20T00:30:34;5.97;;;4.00;;
15595;SDS011;7898;48.658;9.068;2023-04-20T00:33:01;7.00;;;4.10;;
15595;SDS011;7898;48.658;9.068;2023-04-20T00:35:28;6.83;;;4.27;;
15595;SDS011;7898;48.658;9.068;2023-04-20T00:37:56;5.37;;;4.27;;
15595;SDS011;7898;48.658;9.068;2023-04-20T00:40:23;8.87;;;4.83;;
15595;SDS011;7898;48.658;9.068;2023-04-20T00:42:50;6.27;;;4.10;;
15595;SDS011;7898;48.658;9.068;2023-04-20T00:45:18;4.77;;;3.90;;
15595;SDS011;7898;48.658;9.068;2023-04-20T00:47:46;8.70;;;4.57;;
15595;SDS011;7898;48.658;9.068;2023-04-20T00:50:13;5.73;;;4.47;;
15595;SDS011;7898;48.658;9.068;2023-04-20T00:52:40;6.33;;;4.60;;
15595;SDS011;7898;48.658;9.068;2023-04-20T00:55:09;8.27;;;4.50;;
15595;SDS011;7898;48.658;9.068;2023-04-20T00:57:37;5.50;;;4.20;;
15595;SDS011;7898;48.658;9.068;2023-04-20T01:00:06;6.63;;;4.70;;
15595;SDS011;7898;48.658;9.068;2023-04-20T01:02:34;6.23;;;4.07;;
15595;SDS011;7898;48.658;9.068;2023-04-20T01:05:01;5.67;;;4.17;;
15595;SDS011;7898;48.658;9.068;2023-04-20T01:07:28;7.87;;;4.50;;
15595;SDS011;7898;48.658;9.068;2023-04-20T01:09:55;7.23;;;4.50;;
15595;SDS011;7898;48.658;9.068;2023-04-20T01:12:23;6.70;;;4.30;;
15595;SDS011;7898;48.658;9.068;2023-04-20T01:14:50;6.73;;;4.43;;
15595;SDS011;7898;48.658;9.068;2023-04-20T01:17:17;7.60;;;4.73;;
15595;SDS011;7898;48.658;9.068;2023-04-20T01:19:45;7.20;;;4.17;;
15595;SDS011;7898;48.658;9.068;2023-04-20T01:22:15;8.33;;;4.60;;
15595;SDS011;7898;48.658;9.068;2023-04-20T01:24:42;7.80;;;5.40;;
15595;SDS011;7898;48.658;9.068;2023-04-20T01:27:09;8.20;;;5.27;;
15595;SDS011;7898;48.658;9.068;2023-04-20T01:29:37;10.90;;;5.53;;
15595;SDS011;7898;48.658;9.068;2023-04-20T01:32:04;8.13;;;4.90;;
15595;SDS011;7898;48.658;9.068;2023-04-20T01:34:32;5.07;;;4.23;;
15595;SDS011;7898;48.658;9.068;2023-04-20T01:36:58;6.30;;;4.23;;
15595;SDS011;7898;48.658;9.068;2023-04-20T01:39:27;5.93;;;4.80;;
15595;SDS011;7898;48.658;9.068;2023-04-20T01:41:55;5.80;;;4.60;;
15595;SDS011;7898;48.658;9.068;2023-04-20T01:44:22;8.53;;;5.37;;
15595;SDS011;7898;48.658;9.068;2023-04-20T01:46:48;7.37;;;5.80;;
15595;SDS011;7898;48.658;9.068;2023-04-20T01:49:15;8.20;;;5.70;;
15595;SDS011;7898;48.658;9.068;2023-04-20T01:51:43;7.50;;;5.40;;
15595;SDS011;7898;48.658;9.068;2023-04-20T01:54:10;9.00;;;5.87;;
15595;SDS011;7898;48.658;9.068;2023-04-20T01:56:38;7.40;;;5.57;;
15595;SDS011;7898;48.658;9.068;2023-04-20T01:59:05;8.23;;;4.87;;
15595;SDS011;7898;48.658;9.068;2023-04-20T02:01:32;6.60;;;5.23;;
15595;SDS011;7898;48.658;9.068;2023-04-20T02:03:59;7.67;;;5.20;;
15595;SDS011;7898;48.658;9.068;2023-04-20T02:06:26;6.57;;;4.83;;
15595;SDS011;7898;48.658;9.068;2023-04-20T02:08:52;8.53;;;5.73;;
15595;SDS011;7898;48.658;9.068;2023-04-20T02:11:19;9.50;;;5.83;;
15595;SDS011;7898;48.658;9.068;2023-04-20T02:13:48;9.70;;;5.87;;
15595;SDS011;7898;48.658;9.068;2023-04-20T02:16:15;7.60;;;5.50;;
15595;SDS011;7898;48.658;9.068;2023-04-20T02:18:43;8.23;;;5.87;;
15595;SDS011;7898;48.658;9.068;2023-04-20T02:21:11;8.20;;;5.30;;
15595;SDS011;7898;48.658;9.068;2023-04-20T02:23:38;7.37;;;4.50;;
15595;SDS011;7898;48.658;9.068;2023-04-20T02:26:04;6.57;;;5.63;;
15595;SDS011;7898;48.658;9.068;2023-04-20T02:28:31;7.73;;;5.30;;
15595;SDS011;7898;48.658;9.068;2023-04-20T02:31:00;5.67;;;4.97;;
15595;SDS011;7898;48.658;9.068;2023-04-20T02:33:26;10.47;;;4.80;;
15595;SDS011;7898;48.658;9.068;2023-04-20T02:35:53;5.50;;;4.53;;
15595;SDS011;7898;48.658;9.068;2023-04-20T02:38:20;6.90;;;4.77;;
15595;SDS011;7898;48.658;9.068;2023-04-20T02:40:47;5.00;;;4.47;;
15595;SDS011;7898;48.658;9.068;2023-04-20T02:43:14;6.17;;;4.90;;
15595;SDS011;7898;48.658;9.068;2023-04-20T02:45:41;23.30;;;4.70;;
15595;SDS011;7898;48.658;9.068;2023-04-20T02:48:09;8.20;;;4.57;;
15595;SDS011;7898;48.658;9.068;2023-04-20T02:50:36;5.83;;;4.53;;
15595;SDS011;7898;48.658;9.068;2023-04-20T02:53:03;6.30;;;4.97;;
15595;SDS011;7898;48.658;9.068;2023-04-20T02:55:30;6.60;;;5.07;;
15595;SDS011;7898;48.658;9.068;2023-04-20T02:57:56;7.50;;;4.83;;
15595;SDS011;7898;48.658;9.068;2023-04-20T03:00:23;8.00;;;5.10;;
15595;SDS011;7898;48.658;9.068;2023-04-20T03:02:50;7.67;;;5.33;;
15595;SDS011;7898;48.658;9.068;2023-04-20T03:05:19;6.23;;;5.20;;
15595;SDS011;7898;48.658;9.068;2023-04-20T03:07:46;5.80;;;5.13;;
15595;SDS011;7898;48.658;9.068;2023-04-20T03:10:12;9.93;;;5.23;;
15595;SDS011;7898;48.658;9.068;2023-04-20T03:12:39;6.90;;;5.47;;
15595;SDS011;7898;48.658;9.068;2023-04-20T03:15:07;7.47;;;5.50;;
15595;SDS011;7898;48.658;9.068;2023-04-20T03:17:35;6.90;;;5.53;;
15595;SDS011;7898;48.658;9.068;2023-04-20T03:20:02;8.27;;;5.67;;
15595;SDS011;7898;48.658;9.068;2023-04-20T03:22:31;6.97;;;5.07;;
15595;SDS011;7898;48.658;9.068;2023-04-20T03:24:58;8.60;;;5.50;;
15595;SDS011;7898;48.658;9.068;2023-04-20T03:27:25;8.93;;;5.70;;
15595;SDS011;7898;48.658;9.068;2023-04-20T03:29:52;10.77;;;6.50;;
15595;SDS011;7898;48.658;9.068;2023-04-20T03:32:18;9.90;;;6.93;;
15595;SDS011;7898;48.658;9.068;2023-04-20T03:34:45;8.10;;;6.57;;
15595;SDS011;7898;48.658;9.068;2023-04-20T03:37:13;8.47;;;5.90;;
15595;SDS011;7898;48.658;9.068;2023-04-20T03:39:41;8.27;;;6.03;;
15595;SDS011;7898;48.658;9.068;2023-04-20T03:42:08;8.27;;;5.37;;
15595;SDS011;7898;48.658;9.068;2023-04-20T03:44:35;9.10;;;6.00;;
15595;SDS011;7898;48.658;9.068;2023-04-20T03:47:02;9.63;;;5.87;;
15595;SDS011;7898;48.658;9.068;2023-04-20T03:49:29;8.43;;;5.40;;
15595;SDS011;7898;48.658;9.068;2023-04-20T03:51:55;7.13;;;5.60;;
15595;SDS011;7898;48.658;9.068;2023-04-20T03:54:22;9.60;;;6.57;;
15595;SDS011;7898;48.658;9.068;2023-04-20T03:56:50;11.83;;;7.37;;
15595;SDS011;7898;48.658;9.068;2023-04-20T03:59:17;14.23;;;9.97;;
15595;SDS011;7898;48.658;9.068;2023-04-20T04:01:44;12.70;;;8.70;;
15595;SDS011;7898;48.658;9.068;2023-04-20T04:04:11;10.83;;;7.57;;
15595;SDS011;7898;48.658;9.068;2023-04-20T04:06:38;9.07;;;6.50;;
15595;SDS011;7898;48.658;9.068;2023-04-20T04:09:05;13.00;;;6.60;;
15595;SDS011;7898;48.658;9.068;2023-04-20T04:11:32;8.80;;;6.77;;
15595;SDS011;7898;48.658;9.068;2023-04-20T04:14:00;8.90;;;5.90;;
15595;SDS011;7898;48.658;9.068;2023-04-20T04:16:29;7.80;;;5.37;;
15595;SDS011;7898;48.658;9.068;2023-04-20T04:18:56;9.63;;;6.97;;
15595;SDS011;7898;48.658;9.068;2023-04-20T04:21:23;13.53;;;8.33;;
15595;SDS011;7898;48.658;9.068;2023-04-20T04:23:49;12.83;;;9.27;;
15595;SDS011;7898;48.658;9.068;2023-04-20T04:26:16;15.10;;;9.37;;
15595;SDS011;7898;48.658;9.068;2023-04-20T04:28:45;13.37;;;9.07;;
15595;SDS011;7898;48.658;9.068;2023-04-20T04:31:14;14.17;;;6.67;;
15595;SDS011;7898;48.658;9.068;2023-04-20T04:33:43;10.07;;;6.03;;
15595;SDS011;7898;48.658;9.068;2023-04-20T04:36:10;11.53;;;6.57;;
15595;SDS011;7898;48.658;9.068;2023-04-20T04:38:39;10.07;;;7.47;;
15595;SDS011;7898;48.658;9.068;2023-04-20T04:41:06;16.40;;;10.93;;
15595;SDS011;7898;48.658;9.068;2023-04-20T04:43:33;10.33;;;7.90;;
15595;SDS011;7898;48.658;9.068;2023-04-20T04:46:04;9.07;;;6.80;;
15595;SDS011;7898;48.658;9.068;2023-04-20T04:48:35;10.43;;;6.17;;
15595;SDS011;7898;48.658;9.068;2023-04-20T04:51:04;11.00;;;7.57;;
15595;SDS011;7898;48.658;9.068;2023-04-20T04:53:32;10.57;;;7.17;;
15595;SDS011;7898;48.658;9.068;2023-04-20T04:55:59;9.13;;;7.03;;
15595;SDS011;7898;48.658;9.068;2023-04-20T04:58:26;8.80;;;7.00;;
15595;SDS011;7898;48.658;9.068;2023-04-20T05:00:52;8.77;;;6.70;;
15595;SDS011;7898;48.658;9.068;2023-04-20T05:03:19;10.53;;;7.33;;
15595;SDS011;7898;48.658;9.068;2023-04-20T05:05:48;12.13;;;8.07;;
15595;SDS011;7898;48.658;9.068;2023-04-20T05:08:14;9.63;;;7.73;;
15595;SDS011;7898;48.658;9.068;2023-04-20T05:10:41;12.43;;;8.43;;
15595;SDS011;7898;48.658;9.068;2023-04-20T05:13:08;9.27;;;6.13;;
15595;SDS011;7898;48.658;9.068;2023-04-20T05:15:38;8.63;;;6.33;;
15595;SDS011;7898;48.658;9.068;2023-04-20T05:18:05;12.43;;;6.17;;
15595;SDS011;7898;48.658;9.068;2023-04-20T05:20:33;7.23;;;5.90;;
15595;SDS011;7898;48.658;9.068;2023-04-20T05:23:01;9.33;;;6.60;;
15595;SDS011;7898;48.658;9.068;2023-04-20T05:25:31;13.17;;;7.30;;
15595;SDS011;7898;48.658;9.068;2023-04-20T05:27:58;8.20;;;6.27;;
15595;SDS011;7898;48.658;9.068;2023-04-20T05:30:33;7.00;;;5.63;;
15595;SDS011;7898;48.658;9.068;2023-04-20T05:33:00;11.67;;;5.93;;
15595;SDS011;7898;48.658;9.068;2023-04-20T05:35:30;7.87;;;5.70;;
15595;SDS011;7898;48.658;9.068;2023-04-20T05:37:57;9.57;;;6.50;;
15595;SDS011;7898;48.658;9.068;2023-04-20T05:40:32;7.87;;;6.00;;
15595;SDS011;7898;48.658;9.068;2023-04-20T05:43:04;7.10;;;6.00;;
15595;SDS011;7898;48.658;9.068;2023-04-20T05:45:33;7.93;;;6.17;;
15595;SDS011;7898;48.658;9.068;2023-04-20T05:48:00;8.20;;;5.37;;
15595;SDS011;7898;48.658;9.068;2023-04-20T05:50:27;11.07;;;6.23;;
15595;SDS011;7898;48.658;9.068;2023-04-20T05:52:53;9.73;;;5.00;;
15595;SDS011;7898;48.658;9.068;2023-04-20T05:55:20;7.97;;;6.10;;
15595;SDS011;7898;48.658;9.068;2023-04-20T05:57:49;9.00;;;6.70;;
15595;SDS011;7898;48.658;9.068;2023-04-20T06:00:16;11.73;;;6.70;;
15595;SDS011;7898;48.658;9.068;2023-04-20T06:02:44;9.13;;;5.83;;
15595;SDS011;7898;48.658;9.068;2023-04-20T06:05:11;8.27;;;6.07;;
15595;SDS011;7898;48.658;9.068;2023-04-20T06:07:38;15.53;;;7.93;;
15595;SDS011;7898;48.658;9.068;2023-04-20T06:10:05;7.40;;;5.30;;
15595;SDS011;7898;48.658;9.068;2023-04-20T06:12:33;9.00;;;7.07;;
15595;SDS011;7898;48.658;9.068;2023-04-20T06:15:01;6.67;;;5.70;;
15595;SDS011;7898;48.658;9.068;2023-04-20T06:17:30;7.57;;;5.87;;
15595;SDS011;7898;48.658;9.068;2023-04-20T06:19:59;11.37;;;6.67;;
15595;SDS011;7898;48.658;9.068;2023-04-20T06:22:26;7.93;;;6.13;;
15595;SDS011;7898;48.658;9.068;2023-04-20T06:24:53;9.10;;;6.20;;
15595;SDS011;7898;48.658;9.068;2023-04-20T06:27:20;9.53;;;6.30;;
15595;SDS011;7898;48.658;9.068;2023-04-20T06:29:47;12.10;;;6.50;;
15595;SDS011;7898;48.658;9.068;2023-04-20T06:32:16;9.43;;;7.57;;
15595;SDS011;7898;48.658;9.068;2023-04-20T06:34:43;7.70;;;6.90;;
15595;SDS011;7898;48.658;9.068;2023-04-20T06:37:11;9.90;;;6.87;;
15595;SDS011;7898;48.658;9.068;2023-04-20T06:39:38;12.90;;;7.20;;
15595;SDS011;7898;48.658;9.068;2023-04-20T06:42:05;10.70;;;6.73;;
15595;SDS011;7898;48.658;9.068;2023-04-20T06:44:33;7.77;;;6.83;;
15595;SDS011;7898;48.658;9.068;2023-04-20T06:47:00;12.57;;;7.00;;
15595;SDS011;7898;48.658;9.068;2023-04-20T06:49:28;10.30;;;6.70;;
15595;SDS011;7898;48.658;9.068;2023-04-20T06:51:55;9.93;;;6.60;;
15595;SDS011;7898;48.658;9.068;2023-04-20T06:54:22;7.83;;;6.67;;
15595;SDS011;7898;48.658;9.068;2023-04-20T06:56:49;11.47;;;8.03;;
15595;SDS011;7898;48.658;9.068;2023-04-20T06:59:15;9.47;;;6.90;;
15595;SDS011;7898;48.658;9.068;2023-04-20T07:01:43;7.67;;;6.77;;
15595;SDS011;7898;48.658;9.068;2023-04-20T07:04:10;7.77;;;6.27;;
15595;SDS011;7898;48.658;9.068;2023-04-20T07:06:39;10.83;;;6.73;;
15595;SDS011;7898;48.658;9.068;2023-04-20T07:09:05;7.30;;;6.32;;
15595;SDS011;7898;48.658;9.068;2023-04-20T07:11:33;8.25;;;6.40;;
15595;SDS011;7898;48.658;9.068;2023-04-20T07:14:00;8.43;;;7.50;;
15595;SDS011;7898;48.658;9.068;2023-04-20T07:16:27;9.47;;;7.00;;
15595;SDS011;7898;48.658;9.068;2023-04-20T07:18:54;10.73;;;7.37;;
15595;SDS011;7898;48.658;9.068;2023-04-20T07:21:21;9.97;;;7.77;;
15595;SDS011;7898;48.658;9.068;2023-04-20T07:23:49;10.93;;;8.77;;
15595;SDS011;7898;48.658;9.068;2023-04-20T07:26:16;11.10;;;7.63;;
15595;SDS011;7898;48.658;9.068;2023-04-20T07:28:43;9.13;;;7.60;;
15595;SDS011;7898;48.658;9.068;2023-04-20T07:31:09;11.37;;;7.43;;
15595;SDS011;7898;48.658;9.068;2023-04-20T07:33:36;9.23;;;7.27;;
15595;SDS011;7898;48.658;9.068;2023-04-20T07:36:03;10.53;;;7.87;;
15595;SDS011;7898;48.658;9.068;2023-04-20T07:38:31;10.37;;;7.20;;
15595;SDS011;7898;48.658;9.068;2023-04-20T07:40:59;10.30;;;7.50;;
15595;SDS011;7898;48.658;9.068;2023-04-20T07:43:26;11.20;;;8.80;;
15595;SDS011;7898;48.658;9.068;2023-04-20T07:45:53;11.83;;;8.27;;
15595;SDS011;7898;48.658;9.068;2023-04-20T07:48:20;11.93;;;7.77;;
15595;SDS011;7898;48.658;9.068;2023-04-20T07:50:47;12.73;;;9.10;;
15595;SDS011;7898;48.658;9.068;2023-04-20T07:53:14;9.37;;;7.83;;
15595;SDS011;7898;48.658;9.068;2023-04-20T07:55:40;10.43;;;8.17;;
15595;SDS011;7898;48.658;9.068;2023-04-20T07:58:09;12.43;;;8.80;;
15595;SDS011;7898;48.658;9.068;2023-04-20T08:00:36;11.53;;;8.50;;
15595;SDS011;7898;48.658;9.068;2023-04-20T08:03:05;12.83;;;9.33;;
15595;SDS011;7898;48.658;9.068;2023-04-20T08:05:32;13.53;;;9.03;;
15595;SDS011;7898;48.658;9.068;2023-04-20T08:07:59;14.93;;;9.87;;
15595;SDS011;7898;48.658;9.068;2023-04-20T08:10:26;15.13;;;9.70;;
15595;SDS011;7898;48.658;9.068;2023-04-20T08:12:52;14.10;;;8.73;;
15595;SDS011;7898;48.658;9.068;2023-04-20T08:15:21;12.37;;;8.40;;
15595;SDS011;7898;48.658;9.068;2023-04-20T08:17:48;13.57;;;9.37;;
15595;SDS011;7898;48.658;9.068;2023-04-20T08:20:14;12.03;;;8.30;;
15595;SDS011;7898;48.658;9.068;2023-04-20T08:22:41;12.23;;;8.83;;
15595;SDS011;7898;48.658;9.068;2023-04-20T08:25:08;11.93;;;9.47;;
15595;SDS011;7898;48.658;9.068;2023-04-20T08:27:35;12.70;;;9.60;;
15595;SDS011;7898;48.658;9.068;2023-04-20T08:30:03;12.70;;;10.33;;
15595;SDS011;7898;48.658;9.068;2023-04-20T08:32:32;13.53;;;9.10;;
15595;SDS011;7898;48.658;9.068;2023-04-20T08:34:59;14.50;;;9.83;;
15595;SDS011;7898;48.658;9.068;2023-04-20T08:37:26;13.63;;;9.93;;
15595;SDS011;7898;48.658;9.068;2023-04-20T08:39:52;12.83;;;9.63;;
15595;SDS011;7898;48.658;9.068;2023-04-20T08:42:19;12.53;;;8.80;;
15595;SDS011;7898;48.658;9.068;2023-04-20T08:44:46;12.83;;;9.47;;
15595;SDS011;7898;48.658;9.068;2023-04-20T08:47:13;12.20;;;9.70;;
15595;SDS011;7898;48.658;9.068;2023-04-20T08:49:42;12.07;;;9.70;;
15595;SDS011;7898;48.658;9.068;2023-04-20T08:52:10;12.70;;;9.13;;
15595;SDS011;7898;48.658;9.068;2023-04-20T08:54:37;13.60;;;9.57;;
15595;SDS011;7898;48.658;9.068;2023-04-20T08:57:04;14.03;;;10.07;;
15595;SDS011;7898;48.658;9.068;2023-04-20T08:59:31;14.33;;;10.00;;
15595;SDS011;7898;48.658;9.068;2023-04-20T09:02:07;14.73;;;9.60;;
15595;SDS011;7898;48.658;9.068;2023-04-20T09:04:36;14.57;;;9.97;;
15595;SDS011;7898;48.658;9.068;2023-04-20T09:07:06;16.42;;;12.48;;
15595;SDS011;7898;48.658;9.068;2023-04-20T09:09:52;16.63;;;10.90;;
15595;SDS011;7898;48.658;9.068;2023-04-20T09:12:22;14.97;;;11.20;;
15595;SDS011;7898;48.658;9.068;2023-04-20T09:14:50;16.40;;;10.13;;
15595;SDS011;7898;48.658;9.068;2023-04-20T09:17:18;15.67;;;10.47;;
15595;SDS011;7898;48.658;9.068;2023-04-20T09:19:57;13.60;;;9.97;;
15595;SDS011;7898;48.658;9.068;2023-04-20T09:22:31;14.00;;;9.90;;
15595;SDS011;7898;48.658;9.068;2023-04-20T09:24:59;13.63;;;9.97;;
15595;SDS011;7898;48.658;9.068;2023-04-20T09:27:37;17.03;;;10.60;;
15595;SDS011;7898;48.658;9.068;2023-04-20T09:30:04;13.63;;;9.47;;
15595;SDS011;7898;48.658;9.068;2023-04-20T09:32:33;13.73;;;9.47;;
15595;SDS011;7898;48.658;9.068;2023-04-20T09:35:00;12.80;;;9.40;;
15595;SDS011;7898;48.658;9.068;2023-04-20T09:37:27;11.63;;;8.37;;
15595;SDS011;7898;48.658;9.068;2023-04-20T09:39:58;16.60;;;8.40;;
15595;SDS011;7898;48.658;9.068;2023-04-20T09:42:26;10.97;;;7.70;;
15595;SDS011;7898;48.658;9.068;2023-04-20T09:44:54;10.27;;;8.07;;
15595;SDS011;7898;48.658;9.068;2023-04-20T09:47:22;12.50;;;8.63;;
15595;SDS011;7898;48.658;9.068;2023-04-20T09:49:50;13.43;;;8.70;;
15595;SDS011;7898;48.658;9.068;2023-04-20T09:52:18;13.60;;;8.23;;
15595;SDS011;7898;48.658;9.068;2023-04-20T09:54:45;12.40;;;8.70;;
15595;SDS011;7898;48.658;9.068;2023-04-20T09:57:13;10.93;;;9.67;;
15595;SDS011;7898;48.658;9.068;2023-04-20T09:59:41;13.10;;;9.07;;
15595;SDS011;7898;48.658;9.068;2023-04-20T10:02:09;11.33;;;8.63;;
15595;SDS011;7898;48.658;9.068;2023-04-20T10:04:37;13.27;;;9.03;;
15595;SDS011;7898;48.658;9.068;2023-04-20T10:07:21;14.90;;;8.33;;
15595;SDS011;7898;48.658;9.068;2023-04-20T10:10:00;11.93;;;8.63;;
15595;SDS011;7898;48.658;9.068;2023-04-20T10:12:30;12.70;;;8.73;;
15595;SDS011;7898;48.658;9.068;2023-04-20T10:14:57;12.37;;;9.13;;
15595;SDS011;7898;48.658;9.068;2023-04-20T10:17:28;14.80;;;8.93;;
15595;SDS011;7898;48.658;9.068;2023-04-20T10:19:55;13.20;;;9.13;;
15595;SDS011;7898;48.658;9.068;2023-04-20T10:22:27;14.00;;;9.53;;
15595;SDS011;7898;48.658;9.068;2023-04-20T10:24:57;13.93;;;8.43;;
15595;SDS011;7898;48.658;9.068;2023-04-20T10:27:25;13.90;;;8.63;;
15595;SDS011;7898;48.658;9.068;2023-04-20T10:29:53;15.70;;;8.63;;
15595;SDS011;7898;48.658;9.068;2023-04-20T10:32:21;11.60;;;8.77;;
15595;SDS011;7898;48.658;9.068;2023-04-20T10:34:59;11.90;;;8.37;;
15595;SDS011;7898;48.658;9.068;2023-04-20T10:37:26;11.63;;;8.70;;
15595;SDS011;7898;48.658;9.068;2023-04-20T10:39:53;11.60;;;9.10;;
15595;SDS011;7898;48.658;9.068;2023-04-20T10:42:20;12.30;;;8.87;;
15595;SDS011;7898;48.658;9.068;2023-04-20T10:44:47;12.80;;;9.33;;
15595;SDS011;7898;48.658;9.068;2023-04-20T10:47:16;10.10;;;7.83;;
15595;SDS011;7898;48.658;9.068;2023-04-20T10:49:43;10.27;;;7.70;;
15595;SDS011;7898;48.658;9.068;2023-04-20T10:52:10;12.50;;;9.07;;
15595;SDS011;7898;48.658;9.068;2023-04-20T10:54:37;11.20;;;8.30;;
15595;SDS011;7898;48.658;9.068;2023-04-20T10:57:05;9.17;;;7.80;;
15595;SDS011;7898;48.658;9.068;2023-04-20T10:59:32;9.47;;;7.27;;
15595;SDS011;7898;48.658;9.068;2023-04-20T11:02:05;9.30;;;7.47;;
15595;SDS011;7898;48.658;9.068;2023-04-20T11:04:33;9.53;;;7.80;;
15595;SDS011;7898;48.658;9.068;2023-04-20T11:07:04;8.63;;;6.70;;
15595;SDS011;7898;48.658;9.068;2023-04-20T11:09:33;8.97;;;7.13;;
15595;SDS011;7898;48.658;9.068;2023-04-20T11:12:02;10.33;;;7.27;;
15595;SDS011;7898;48.658;9.068;2023-04-20T11:14:30;9.33;;;8.00;;
15595;SDS011;7898;48.658;9.068;2023-04-20T11:16:58;9.10;;;7.83;;
15595;SDS011;7898;48.658;9.068;2023-04-20T11:19:26;9.07;;;7.30;;
15595;SDS011;7898;48.658;9.068;2023-04-20T11:21:55;8.43;;;7.23;;
15595;SDS011;7898;48.658;9.068;2023-04-20T11:24:23;9.47;;;7.27;;
15595;SDS011;7898;48.658;9.068;2023-04-20T11:26:51;8.87;;;7.03;;
15595;SDS011;7898;48.658;9.068;2023-04-20T11:29:28;9.90;;;6.70;;
15595;SDS011;7898;48.658;9.068;2023-04-20T11:31:57;9.40;;;7.43;;
15595;SDS011;7898;48.658;9.068;2023-04-20T11:34:24;9.87;;;7.20;;
15595;SDS011;7898;48.658;9.068;2023-04-20T11:36:51;9.53;;;7.63;;
15595;SDS011;7898;48.658;9.068;2023-04-20T11:39:25;8.63;;;7.73;;
15595;SDS011;7898;48.658;9.068;2023-04-20T11:41:53;10.00;;;7.50;;
15595;SDS011;7898;48.658;9.068;2023-04-20T11:44:22;12.37;;;8.73;;
15595;SDS011;7898;48.658;9.068;2023-04-20T11:46:50;10.23;;;8.30;;
15595;SDS011;7898;48.658;9.068;2023-04-20T11:49:18;10.73;;;8.23;;
15595;SDS011;7898;48.658;9.068;2023-04-20T11:51:46;10.60;;;7.83;;
15595;SDS011;7898;48.658;9.068;2023-04-20T11:54:13;11.83;;;8.63;;
15595;SDS011;7898;48.658;9.068;2023-04-20T11:56:41;12.87;;;9.30;;
15595;SDS011;7898;48.658;9.068;2023-04-20T11:59:08;13.23;;;9.33;;
15595;SDS011;7898;48.658;9.068;2023-04-20T12:01:36;13.30;;;9.97;;
15595;SDS011;7898;48.658;9.068;2023-04-20T12:04:03;12.23;;;9.30;;
15595;SDS011;7898;48.658;9.068;2023-04-20T12:06:30;13.70;;;8.90;;
15595;SDS011;7898;48.658;9.068;2023-04-20T12:08:57;14.03;;;8.80;;
15595;SDS011;7898;48.658;9.068;2023-04-20T12:11:24;14.50;;;9.00;;
15595;SDS011;7898;48.658;9.068;2023-04-20T12:13:52;13.93;;;8.73;;
15595;SDS011;7898;48.658;9.068;2023-04-20T12:16:19;15.63;;;9.50;;
15595;SDS011;7898;48.658;9.068;2023-04-20T12:18:46;12.63;;;9.00;;
15595;SDS011;7898;48.658;9.068;2023-04-20T12:21:13;13.17;;;9.57;;
15595;SDS011;7898;48.658;9.068;2023-04-20T12:23:40;13.13;;;9.50;;
15595;SDS011;7898;48.658;9.068;2023-04-20T12:26:08;13.47;;;10.13;;
15595;SDS011;7898;48.658;9.068;2023-04-20T12:28:35;13.63;;;9.77;;
15595;SDS011;7898;48.658;9.068;2023-04-20T12:31:03;13.90;;;10.07;;
15595;SDS011;7898;48.658;9.068;2023-04-20T12:33:32;14.07;;;10.13;;
15595;SDS011;7898;48.658;9.068;2023-04-20T12:35:59;11.83;;;9.67;;
15595;SDS011;7898;48.658;9.068;2023-04-20T12:38:25;15.30;;;11.67;;
15595;SDS011;7898;48.658;9.068;2023-04-20T12:40:52;12.67;;;10.13;;
15595;SDS011;7898;48.658;9.068;2023-04-20T12:43:19;15.80;;;11.17;;
15595;SDS011;7898;48.658;9.068;2023-04-20T12:45:46;15.03;;;10.60;;
15595;SDS011;7898;48.658;9.068;2023-04-20T12:48:14;13.53;;;10.20;;
15595;SDS011;7898;48.658;9.068;2023-04-20T12:50:41;13.47;;;10.30;;
15595;SDS011;7898;48.658;9.068;2023-04-20T12:53:08;14.27;;;10.53;;
15595;SDS011;7898;48.658;9.068;2023-04-20T12:55:35;13.93;;;9.63;;
15595;SDS011;7898;48.658;9.068;2023-04-20T12:58:02;15.07;;;10.73;;
15595;SDS011;7898;48.658;9.068;2023-04-20T13:00:28;14.87;;;9.90;;
15595;SDS011;7898;48.658;9.068;2023-04-20T13:02:55;12.07;;;9.27;;
15595;SDS011;7898;48.658;9.068;2023-04-20T13:05:24;12.53;;;9.80;;
15595;SDS011;7898;48.658;9.068;2023-04-20T13:07:50;13.63;;;10.20;;
15595;SDS011;7898;48.658;9.068;2023-04-20T13:10:17;11.43;;;9.40;;
15595;SDS011;7898;48.658;9.068;2023-04-20T13:12:44;15.70;;;10.17;;
15595;SDS011;7898;48.658;9.068;2023-04-20T13:15:11;11.90;;;8.33;;
15595;SDS011;7898;48.658;9.068;2023-04-20T13:17:38;13.23;;;9.97;;
15595;SDS011;7898;48.658;9.068;2023-04-20T13:20:05;11.97;;;9.27;;
15595;SDS011;7898;48.658;9.068;2023-04-20T13:22:34;13.10;;;10.30;;
15595;SDS011;7898;48.658;9.068;2023-04-20T13:25:02;13.43;;;10.07;;
15595;SDS011;7898;48.658;9.068;2023-04-20T13:27:30;14.00;;;10.37;;
15595;SDS011;7898;48.658;9.068;2023-04-20T13:29:57;14.00;;;10.27;;
15595;SDS011;7898;48.658;9.068;2023-04-20T13:32:24;12.77;;;9.90;;
15595;SDS011;7898;48.658;9.068;2023-04-20T13:34:51;14.93;;;9.73;;
15595;SDS011;7898;48.658;9.068;2023-04-20T13:37:18;10.90;;;8.87;;
15595;SDS011;7898;48.658;9.068;2023-04-20T13:39:46;10.30;;;9.00;;
15595;SDS011;7898;48.658;9.068;2023-04-20T13:42:13;11.13;;;8.77;;
15595;SDS011;7898;48.658;9.068;2023-04-20T13:44:40;12.33;;;10.10;;
15595;SDS011;7898;48.658;9.068;2023-04-20T13:47:07;12.90;;;9.07;;
15595;SDS011;7898;48.658;9.068;2023-04-20T13:49:34;11.63;;;9.40;;
15595;SDS011;7898;48.658;9.068;2023-04-20T13:52:04;11.37;;;8.80;;
15595;SDS011;7898;48.658;9.068;2023-04-20T13:54:31;12.77;;;9.07;;
15595;SDS011;7898;48.658;9.068;2023-04-20T13:57:00;8.73;;;6.97;;
15595;SDS011;7898;48.658;9.068;2023-04-20T13:59:27;14.97;;;12.70;;
15595;SDS011;7898;48.658;9.068;2023-04-20T14:01:54;40.17;;;23.43;;
15595;SDS011;7898;48.658;9.068;2023-04-20T14:04:21;16.00;;;12.10;;
15595;SDS011;7898;48.658;9.068;2023-04-20T14:06:48;18.37;;;13.97;;
15595;SDS011;7898;48.658;9.068;2023-04-20T14:09:16;23.00;;;16.07;;
15595;SDS011;7898;48.658;9.068;2023-04-20T14:11:43;25.40;;;17.43;;
15595;SDS011;7898;48.658;9.068;2023-04-20T14:14:12;21.20;;;14.63;;
15595;SDS011;7898;48.658;9.068;2023-04-20T14:16:42;24.30;;;16.57;;
15595;SDS011;7898;48.658;9.068;2023-04-20T14:19:09;22.10;;;15.00;;
15595;SDS011;7898;48.658;9.068;2023-04-20T14:21:36;16.70;;;12.47;;
15595;SDS011;7898;48.658;9.068;2023-04-20T14:24:04;23.23;;;16.73;;
15595;SDS011;7898;48.658;9.068;2023-04-20T14:26:31;24.43;;;17.03;;
15595;SDS011;7898;48.658;9.068;2023-04-20T14:28:58;28.43;;;18.20;;
15595;SDS011;7898;48.658;9.068;2023-04-20T14:31:26;21.50;;;13.23;;
15595;SDS011;7898;48.658;9.068;2023-04-20T14:33:53;12.67;;;9.33;;
15595;SDS011;7898;48.658;9.068;2023-04-20T14:36:20;10.30;;;6.57;;
15595;SDS011;7898;48.658;9.068;2023-04-20T14:38:47;9.97;;;8.93;;
15595;SDS011;7898;48.658;9.068;2023-04-20T14:41:14;10.87;;;9.00;;
15595;SDS011;7898;48.658;9.068;2023-04-20T14:43:41;10.57;;;8.57;;
15595;SDS011;7898;48.658;9.068;2023-04-20T14:46:08;10.53;;;8.30;;
15595;SDS011;7898;48.658;9.068;2023-04-20T14:48:36;10.63;;;8.43;;
15595;SDS011;7898;48.658;9.068;2023-04-20T14:51:03;10.50;;;8.87;;
15595;SDS011;7898;48.658;9.068;2023-04-20T14:53:30;9.07;;;8.10;;
15595;SDS011;7898;48.658;9.068;2023-04-20T14:55:57;11.50;;;9.13;;